Time;durP1;ratioP1;P1;durP2;ratioP2;P2;SDS_P1;SDS_P2;PMS_P1;PMS_P2;Temp;Humidity;BMP_temperature;BMP_pressure;BME280_temperature;BME280_humidity;BME280_pressure;Samples;Min_cycle;Max_cycle;Signal;HPM_P1;HPM_P2
2023/04/13 00:00:17;;;;;;;13.07;6.37;;;7.90;99.90;;;;;;4226949;28;20020;-68
2023/04/13 00:02:18;;;;;;;12.27;6.17;;;7.90;99.90;;;;;;4227455;28;20048;-60
2023/04/13 00:04:21;;;;;;;9.30;6.20;;;7.90;99.90;;;;;;4227944;28;20536;-60
2023/04/13 00:06:23;;;;;;;11.10;6.27;;;7.90;99.90;;;;;;4225705;28;20036;-61
2023/04/13 00:08:24;;;;;;;11.23;6.00;;;7.90;99.90;;;;;;4227280;28;20012;-60
2023/04/13 00:10:26;;;;;;;11.33;5.90;;;7.80;99.90;;;;;;4225933;28;20478;-61
2023/04/13 00:12:27;;;;;;;8.70;6.37;;;7.80;99.90;;;;;;4227601;28;20028;-61
2023/04/13 00:14:34;;;;;;;10.57;7.13;;;7.90;99.90;;;;;;4225779;28;20043;-59
2023/04/13 00:16:35;;;;;;;9.70;6.97;;;7.90;99.90;;;;;;4210213;28;20652;-65
2023/04/13 00:18:36;;;;;;;8.90;6.27;;;7.90;99.90;;;;;;4216049;28;20035;-62
2023/04/13 00:20:40;;;;;;;10.23;6.20;;;7.80;99.90;;;;;;4231794;28;20031;-64
2023/04/13 00:22:43;;;;;;;8.67;5.73;;;7.80;99.90;;;;;;4229773;28;20102;-68
2023/04/13 00:24:44;;;;;;;7.40;5.53;;;7.80;99.90;;;;;;4231544;28;20095;-60
2023/04/13 00:26:46;;;;;;;8.60;5.60;;;7.80;99.90;;;;;;4230009;28;20433;-70
2023/04/13 00:28:47;;;;;;;10.33;5.77;;;7.80;99.90;;;;;;4231123;28;20428;-71
2023/04/13 00:30:48;;;;;;;11.13;5.90;;;7.80;99.90;;;;;;4229954;28;20027;-60
2023/04/13 00:32:50;;;;;;;8.13;5.43;;;7.70;99.90;;;;;;4211865;28;20044;-61
2023/04/13 00:34:52;;;;;;;9.30;5.97;;;7.70;99.90;;;;;;4230722;28;20027;-61
2023/04/13 00:36:53;;;;;;;8.57;5.40;;;7.60;99.90;;;;;;4230184;28;20027;-61
2023/04/13 00:38:56;;;;;;;7.90;5.43;;;7.60;99.90;;;;;;4230585;28;20101;-60
2023/04/13 00:40:57;;;;;;;9.53;6.00;;;7.50;99.90;;;;;;4227010;28;20097;-62
2023/04/13 00:43:00;;;;;;;11.13;5.93;;;7.50;99.90;;;;;;4230172;28;20437;-69
2023/04/13 00:45:02;;;;;;;8.97;5.03;;;7.50;99.90;;;;;;4229413;28;20015;-60
2023/04/13 00:47:04;;;;;;;7.37;5.13;;;7.40;99.90;;;;;;4231142;28;20035;-61
2023/04/13 00:49:06;;;;;;;9.07;5.27;;;7.40;99.90;;;;;;4228662;28;20039;-68
2023/04/13 00:51:07;;;;;;;8.40;5.70;;;7.40;99.90;;;;;;4230481;28;20087;-60
2023/04/13 00:53:12;;;;;;;7.67;4.97;;;7.30;99.90;;;;;;4228798;28;20495;-60
2023/04/13 00:55:13;;;;;;;8.10;5.17;;;7.30;99.90;;;;;;4230861;28;20023;-60
2023/04/13 00:57:16;;;;;;;10.10;5.50;;;7.30;99.90;;;;;;4229063;28;20433;-60
2023/04/13 00:59:17;;;;;;;9.50;5.60;;;7.30;99.90;;;;;;4230147;28;20044;-61
2023/04/13 01:01:18;;;;;;;7.30;5.20;;;7.30;99.90;;;;;;4229661;28;20471;-61
2023/04/13 01:03:20;;;;;;;8.07;5.53;;;7.20;99.90;;;;;;4230544;28;20462;-61
2023/04/13 01:05:24;;;;;;;11.57;6.60;;;7.20;99.90;;;;;;4229939;28;20024;-61
2023/04/13 01:07:36;;;;;;;10.30;6.00;;;7.20;99.90;;;;;;4229390;28;20035;-70
2023/04/13 01:09:44;;;;;;;9.83;6.30;;;7.10;99.90;;;;;;4229980;28;20027;-65
2023/04/13 01:11:51;;;;;;;9.50;6.57;;;7.10;99.90;;;;;;4228989;28;20104;-70
2023/04/13 01:14:05;;;;;;;10.97;6.50;;;7.00;99.90;;;;;;4229966;28;20023;-71
2023/04/13 01:16:14;;;;;;;13.43;6.93;;;7.00;99.90;;;;;;4230113;28;20520;-70
2023/04/13 01:18:17;;;;;;;11.43;6.60;;;6.90;99.90;;;;;;4229593;28;20028;-58
2023/04/13 01:20:19;;;;;;;8.77;6.37;;;6.90;99.90;;;;;;4230126;28;20061;-61
2023/04/13 01:22:24;;;;;;;8.90;6.33;;;6.80;99.90;;;;;;4230256;28;20148;-60
2023/04/13 01:24:46;;;;;;;11.80;7.53;;;6.70;99.90;;;;;;4229665;28;20060;-60
2023/04/13 01:27:15;;;;;;;10.30;6.73;;;6.70;99.90;;;;;;4229701;28;20024;-67
2023/04/13 01:29:17;;;;;;;12.07;7.33;;;6.60;99.90;;;;;;4229908;28;20438;-63
2023/04/13 01:31:18;;;;;;;9.90;7.57;;;6.60;99.90;;;;;;4228743;28;20081;-60
2023/04/13 01:33:21;;;;;;;11.97;6.67;;;6.60;99.90;;;;;;4229912;28;20032;-60
2023/04/13 01:35:24;;;;;;;12.50;7.67;;;6.50;99.90;;;;;;4228828;28;20031;-59
2023/04/13 01:37:25;;;;;;;9.47;6.30;;;6.50;99.90;;;;;;4229383;28;20491;-61
2023/04/13 01:39:30;;;;;;;10.83;7.53;;;6.40;99.90;;;;;;4229988;28;20036;-60
2023/04/13 01:41:32;;;;;;;13.57;7.40;;;6.40;99.90;;;;;;4228146;28;20048;-60
2023/04/13 01:43:33;;;;;;;12.13;7.00;;;6.40;99.90;;;;;;4229129;28;20043;-60
2023/04/13 01:45:46;;;;;;;12.27;7.13;;;6.40;99.90;;;;;;4227701;28;20112;-60
2023/04/13 01:48:04;;;;;;;9.83;6.20;;;6.30;99.90;;;;;;4229409;28;20100;-58
2023/04/13 01:50:21;;;;;;;11.27;6.20;;;6.30;99.90;;;;;;4228833;28;20020;-60
2023/04/13 01:52:26;;;;;;;10.40;5.67;;;6.30;99.90;;;;;;4230059;28;20067;-59
2023/04/13 01:54:28;;;;;;;10.63;6.37;;;6.30;99.90;;;;;;4228022;28;20043;-61
2023/04/13 01:56:30;;;;;;;9.60;6.33;;;6.20;99.90;;;;;;4229228;28;20093;-60
2023/04/13 01:58:33;;;;;;;9.97;6.80;;;6.20;99.90;;;;;;4227466;28;20036;-60
2023/04/13 02:00:36;;;;;;;11.67;6.23;;;6.20;99.90;;;;;;4229829;28;20023;-59
2023/04/13 02:02:37;;;;;;;10.17;6.40;;;6.10;99.90;;;;;;4227869;28;20047;-65
2023/04/13 02:04:38;;;;;;;11.57;6.17;;;6.10;99.90;;;;;;4229194;28;20116;-62
2023/04/13 02:06:39;;;;;;;11.67;6.33;;;6.10;99.90;;;;;;4228525;28;20027;-62
2023/04/13 02:08:41;;;;;;;9.50;6.20;;;6.10;99.90;;;;;;4229603;28;20035;-61
2023/04/13 02:10:42;;;;;;;8.93;5.93;;;6.10;99.90;;;;;;4228753;28;20525;-59
2023/04/13 02:12:43;;;;;;;7.37;5.03;;;6.10;99.90;;;;;;4229505;28;20085;-61
2023/04/13 02:14:44;;;;;;;8.07;5.40;;;6.10;99.90;;;;;;4227757;28;20574;-60
2023/04/13 02:16:46;;;;;;;8.23;5.40;;;6.00;99.90;;;;;;4228997;28;20031;-61
2023/04/13 02:18:48;;;;;;;8.53;5.77;;;6.00;99.90;;;;;;4228594;28;20088;-60
2023/04/13 02:21:08;;;;;;;7.13;5.13;;;6.00;99.90;;;;;;4228820;28;20031;-60
2023/04/13 02:23:16;;;;;;;9.82;5.03;;;6.00;99.90;;;;;;4227834;28;20159;-60
2023/04/13 02:25:17;;;;;;;6.00;4.50;;;5.90;99.90;;;;;;4228775;28;20032;-59
2023/04/13 02:27:19;;;;;;;8.00;6.00;;;5.90;99.90;;;;;;4228702;28;20089;-59
2023/04/13 02:29:21;;;;;;;6.80;4.83;;;5.90;99.90;;;;;;4228409;28;20035;-59
2023/04/13 02:31:22;;;;;;;6.87;4.73;;;5.90;99.90;;;;;;4228705;28;20544;-60
2023/04/13 02:33:23;;;;;;;8.50;5.20;;;5.80;99.90;;;;;;4227383;28;20088;-61
2023/04/13 02:35:24;;;;;;;7.53;5.00;;;5.80;99.90;;;;;;4229416;28;20073;-60
2023/04/13 02:37:26;;;;;;;8.03;5.60;;;5.80;99.90;;;;;;4226671;28;20040;-62
2023/04/13 02:39:28;;;;;;;10.83;4.90;;;5.80;99.90;;;;;;4227982;28;20430;-71
2023/04/13 02:41:29;;;;;;;9.00;5.57;;;5.70;99.90;;;;;;4226096;28;20073;-59
2023/04/13 02:43:32;;;;;;;9.03;5.60;;;5.70;99.90;;;;;;4228908;28;20051;-61
2023/04/13 02:45:33;;;;;;;10.30;6.47;;;5.70;99.90;;;;;;4227017;28;20087;-70
2023/04/13 02:47:34;;;;;;;11.47;6.07;;;5.70;99.90;;;;;;4228444;28;20144;-65
2023/04/13 02:49:35;;;;;;;13.93;6.47;;;5.70;99.90;;;;;;4226512;28;20084;-58
2023/04/13 02:51:36;;;;;;;10.43;6.57;;;5.60;99.90;;;;;;4208936;28;20478;-65
2023/04/13 02:53:37;;;;;;;10.93;6.10;;;5.60;99.90;;;;;;4227219;28;20028;-60
2023/04/13 02:55:39;;;;;;;8.60;5.53;;;5.60;99.90;;;;;;4227253;28;20448;-60
2023/04/13 02:57:41;;;;;;;9.27;5.93;;;5.60;99.90;;;;;;4227692;28;20065;-61
2023/04/13 02:59:42;;;;;;;7.93;5.27;;;5.50;99.90;;;;;;4226890;28;20962;-68
2023/04/13 03:01:44;;;;;;;13.67;5.60;;;5.50;99.90;;;;;;4226978;28;20163;-68
2023/04/13 03:03:46;;;;;;;8.43;5.10;;;5.50;99.90;;;;;;4225505;28;20100;-60
2023/04/13 03:05:49;;;;;;;9.07;5.50;;;5.50;99.90;;;;;;4226624;28;21713;-61
2023/04/13 03:07:50;;;;;;;10.20;5.33;;;5.50;99.90;;;;;;4227727;28;20419;-65
2023/04/13 03:09:51;;;;;;;8.80;5.60;;;5.50;99.90;;;;;;4228308;28;20080;-60
2023/04/13 03:11:54;;;;;;;8.57;5.07;;;5.50;99.90;;;;;;4227469;28;20393;-61
2023/04/13 03:13:56;;;;;;;10.70;6.30;;;5.50;99.90;;;;;;4228735;28;20072;-63
2023/04/13 03:15:59;;;;;;;10.47;6.03;;;5.50;99.90;;;;;;4227549;28;20035;-64
2023/04/13 03:18:02;;;;;;;8.13;5.53;;;5.50;99.90;;;;;;4228826;28;20044;-60
2023/04/13 03:20:08;;;;;;;9.70;4.83;;;5.50;99.90;;;;;;4227614;28;20057;-70
2023/04/13 03:22:10;;;;;;;7.23;5.27;;;5.50;99.90;;;;;;4229164;28;20409;-61
2023/04/13 03:24:11;;;;;;;9.80;5.60;;;5.50;99.90;;;;;;4226367;28;20032;-71
2023/04/13 03:26:12;;;;;;;7.53;5.03;;;5.50;99.90;;;;;;4228388;28;20101;-61
2023/04/13 03:28:13;;;;;;;7.23;4.50;;;5.50;99.90;;;;;;4227230;28;20031;-66
2023/04/13 03:30:14;;;;;;;8.00;4.30;;;5.50;99.90;;;;;;4227613;28;20028;-60
2023/04/13 03:32:16;;;;;;;6.17;4.40;;;5.50;99.90;;;;;;4210896;28;20040;-60
2023/04/13 03:34:17;;;;;;;8.47;4.37;;;5.40;99.90;;;;;;4219671;28;20077;-62
2023/04/13 03:36:18;;;;;;;7.87;4.60;;;5.50;99.90;;;;;;4227455;28;20043;-65
2023/04/13 03:38:20;;;;;;;4.87;3.93;;;5.50;99.90;;;;;;4226873;28;20360;-61
2023/04/13 03:40:21;;;;;;;8.13;4.40;;;5.50;99.90;;;;;;4228091;28;20159;-64
2023/04/13 03:42:22;;;;;;;6.40;4.53;;;5.50;99.90;;;;;;4226192;28;20101;-61
2023/04/13 03:44:23;;;;;;;9.13;4.47;;;5.50;99.90;;;;;;4227996;28;20356;-64
2023/04/13 03:46:26;;;;;;;7.53;5.03;;;5.50;99.90;;;;;;4226631;28;20533;-66
2023/04/13 03:48:27;;;;;;;9.47;5.17;;;5.50;99.90;;;;;;4228088;28;20356;-64
2023/04/13 03:50:28;;;;;;;8.80;4.70;;;5.50;99.90;;;;;;4208051;28;20114;-60
2023/04/13 03:52:30;;;;;;;6.50;4.70;;;5.50;99.90;;;;;;4227192;28;20085;-57
2023/04/13 03:54:31;;;;;;;6.73;4.37;;;5.50;99.90;;;;;;4231648;28;20101;-60
2023/04/13 03:56:32;;;;;;;8.03;5.60;;;5.50;99.90;;;;;;4232490;28;20437;-60
2023/04/13 03:58:34;;;;;;;5.97;4.23;;;5.50;99.90;;;;;;4232272;28;20163;-60
2023/04/13 04:00:35;;;;;;;9.37;4.43;;;5.50;99.90;;;;;;4232054;28;20388;-60
2023/04/13 04:02:36;;;;;;;8.43;4.60;;;5.50;99.90;;;;;;4231267;28;20020;-66
2023/04/13 04:04:37;;;;;;;8.07;4.63;;;5.50;99.90;;;;;;4212731;28;20044;-61
2023/04/13 04:06:39;;;;;;;10.80;5.03;;;5.50;99.90;;;;;;4231031;28;20031;-60
2023/04/13 04:08:42;;;;;;;8.80;4.57;;;5.50;99.90;;;;;;4232744;28;20144;-61
2023/04/13 04:10:43;;;;;;;8.83;4.90;;;5.50;99.90;;;;;;4232289;28;20100;-60
2023/04/13 04:12:44;;;;;;;9.97;4.67;;;5.50;99.90;;;;;;4230778;28;20035;-59
2023/04/13 04:14:45;;;;;;;6.67;4.30;;;5.50;99.90;;;;;;4233067;28;20035;-60
2023/04/13 04:16:46;;;;;;;8.00;4.53;;;5.50;99.90;;;;;;4231828;28;20085;-60
2023/04/13 04:18:48;;;;;;;9.50;5.43;;;5.50;99.90;;;;;;4233564;28;20043;-70
2023/04/13 04:20:49;;;;;;;8.63;4.53;;;5.50;99.90;;;;;;4231652;28;20402;-61
2023/04/13 04:22:51;;;;;;;11.07;5.03;;;5.50;99.90;;;;;;4233731;28;20429;-60
2023/04/13 04:24:52;;;;;;;12.57;5.90;;;5.60;99.90;;;;;;4213554;28;20097;-59
2023/04/13 04:26:54;;;;;;;10.97;5.40;;;5.60;99.90;;;;;;4233372;28;20027;-60
2023/04/13 04:29:01;;;;;;;15.47;7.70;;;5.60;99.90;;;;;;4232455;28;20020;-60
2023/04/13 04:31:03;;;;;;;11.37;6.03;;;5.60;99.90;;;;;;4232894;28;20044;-65
2023/04/13 04:33:05;;;;;;;11.57;5.33;;;5.60;99.90;;;;;;4213720;28;20155;-61
2023/04/13 04:35:07;;;;;;;10.07;5.90;;;5.50;99.90;;;;;;4231865;28;20449;-60
2023/04/13 04:37:12;;;;;;;9.40;5.43;;;5.50;99.90;;;;;;4231199;28;20028;-61
2023/04/13 04:39:13;;;;;;;9.00;5.23;;;5.50;99.90;;;;;;4232603;28;20020;-60
2023/04/13 04:41:19;;;;;;;8.27;5.13;;;5.60;99.90;;;;;;4232920;28;20020;-60
2023/04/13 04:43:20;;;;;;;7.83;5.60;;;5.80;99.90;;;;;;4231495;28;20036;-60
2023/04/13 04:45:22;;;;;;;10.53;5.20;;;6.30;99.90;;;;;;4222666;28;20446;-60
2023/04/13 04:47:23;;;;;;;10.83;5.07;;;6.60;99.90;;;;;;4214236;28;20043;-61
2023/04/13 04:49:27;;;;;;;8.60;4.50;;;7.10;99.90;;;;;;4222221;28;20028;-63
2023/04/13 04:51:28;;;;;;;6.23;4.60;;;7.30;99.90;;;;;;4232454;28;20093;-67
2023/04/13 04:53:29;;;;;;;8.53;4.47;;;7.70;99.90;;;;;;4231813;28;20039;-61
2023/04/13 04:55:32;;;;;;;9.53;4.53;;;7.90;99.90;;;;;;4212230;28;20048;-60
2023/04/13 04:57:33;;;;;;;8.77;4.30;;;7.80;99.90;;;;;;4215379;28;20036;-60
2023/04/13 04:59:34;;;;;;;9.17;5.73;;;7.90;99.90;;;;;;4227930;28;20483;-63
2023/04/13 05:01:37;;;;;;;9.30;5.07;;;8.10;99.90;;;;;;4231766;28;20487;-66
2023/04/13 05:03:38;;;;;;;8.77;4.70;;;8.30;99.90;;;;;;4231848;28;20031;-62
2023/04/13 05:05:40;;;;;;;11.00;4.30;;;8.40;99.90;;;;;;4227684;28;20044;-62
2023/04/13 05:07:41;;;;;;;6.07;4.37;;;8.50;99.90;;;;;;4228654;28;20027;-61
2023/04/13 05:09:43;;;;;;;9.70;4.90;;;8.50;99.90;;;;;;4229760;28;20027;-61
2023/04/13 05:11:44;;;;;;;8.27;4.80;;;8.70;99.90;;;;;;4228367;28;20035;-61
2023/04/13 05:13:45;;;;;;;8.87;5.00;;;9.00;99.90;;;;;;4227391;28;20039;-68
2023/04/13 05:15:46;;;;;;;7.67;5.37;;;9.70;99.90;;;;;;4229752;28;20077;-71
2023/04/13 05:17:49;;;;;;;7.73;4.27;;;10.50;99.90;;;;;;4210474;28;20036;-64
2023/04/13 05:19:51;;;;;;;7.37;3.83;;;11.00;99.90;;;;;;4229991;28;20032;-64
2023/04/13 05:21:52;;;;;;;9.20;3.77;;;11.80;99.90;;;;;;4229401;28;20076;-59
2023/04/13 05:23:53;;;;;;;6.63;4.10;;;12.40;99.90;;;;;;4229823;28;20036;-69
2023/04/13 05:25:55;;;;;;;6.13;3.97;;;12.80;99.90;;;;;;4228767;28;20425;-61
2023/04/13 05:27:57;;;;;;;4.73;3.30;;;13.20;99.90;;;;;;4229463;28;20028;-60
2023/04/13 05:29:58;;;;;;;7.33;3.83;;;13.80;99.90;;;;;;4211879;28;20032;-63
2023/04/13 05:32:00;;;;;;;5.50;3.53;;;14.20;99.90;;;;;;4217871;28;20036;-63
2023/04/13 05:34:01;;;;;;;5.43;3.37;;;14.50;99.90;;;;;;4223366;28;20031;-61
2023/04/13 05:36:03;;;;;;;6.07;3.03;;;14.50;99.90;;;;;;4227599;28;20085;-60
2023/04/13 05:38:04;;;;;;;7.83;3.27;;;15.00;99.90;;;;;;4225063;28;20064;-62
2023/04/13 05:40:10;;;;;;;8.20;3.47;;;15.40;99.90;;;;;;4223565;28;20037;-61
2023/04/13 05:42:11;;;;;;;4.73;3.20;;;16.00;99.90;;;;;;4227912;28;20850;-67
2023/04/13 05:44:13;;;;;;;3.47;3.17;;;16.40;99.90;;;;;;4223660;28;20032;-61
2023/04/13 05:46:17;;;;;;;5.28;3.30;;;16.90;98.80;;;;;;4228436;28;20441;-61
2023/04/13 05:48:18;;;;;;;6.47;4.13;;;17.30;97.50;;;;;;4228650;28;20116;-68
2023/04/13 05:50:19;;;;;;;10.40;4.15;;;17.70;96.80;;;;;;4229000;28;20043;-62
2023/04/13 05:52:20;;;;;;;4.95;4.00;;;18.00;95.70;;;;;;4227247;28;20027;-60
2023/04/13 05:54:22;;;;;;;11.88;5.55;;;18.00;94.50;;;;;;4218019;28;20073;-61
2023/04/13 05:56:24;;;;;;;12.45;6.45;;;17.80;94.40;;;;;;4211164;28;20101;-60
2023/04/13 05:58:26;;;;;;;6.85;4.28;;;17.70;93.80;;;;;;4218360;28;20113;-60
2023/04/13 06:00:27;;;;;;;8.63;5.10;;;17.40;93.40;;;;;;4227384;28;20515;-60
2023/04/13 06:02:30;;;;;;;6.97;5.20;;;17.40;93.60;;;;;;4227824;28;20120;-61
2023/04/13 06:04:32;;;;;;;10.20;4.53;;;17.70;93.60;;;;;;4215173;28;20116;-62
2023/04/13 06:06:34;;;;;;;11.35;4.82;;;18.10;92.90;;;;;;4212817;28;20089;-60
2023/04/13 06:08:36;;;;;;;8.65;4.88;;;18.10;92.30;;;;;;4211583;28;20081;-60
2023/04/13 06:10:37;;;;;;;6.93;4.47;;;17.80;92.20;;;;;;4220047;28;20024;-64
2023/04/13 06:12:38;;;;;;;9.50;4.85;;;17.70;92.10;;;;;;4228395;28;20039;-62
2023/04/13 06:14:41;;;;;;;9.52;4.82;;;18.00;91.90;;;;;;4229058;28;20084;-63
2023/04/13 06:16:42;;;;;;;11.13;4.53;;;18.10;91.70;;;;;;4227060;28;20441;-69
2023/04/13 06:18:43;;;;;;;5.38;4.05;;;17.60;91.40;;;;;;4227975;28;20084;-61
2023/04/13 06:20:45;;;;;;;8.20;4.65;;;17.80;91.50;;;;;;4223532;28;20438;-60
2023/04/13 06:22:47;;;;;;;7.95;6.28;;;17.80;91.20;;;;;;4211239;28;20040;-60
2023/04/13 06:24:50;;;;;;;6.22;4.75;;;17.70;91.40;;;;;;4225617;28;20028;-60
2023/04/13 06:26:52;;;;;;;4.15;3.65;;;18.00;91.00;;;;;;4209422;28;20085;-60
2023/04/13 06:28:53;;;;;;;7.05;3.78;;;18.10;90.60;;;;;;4226351;28;20475;-60
2023/04/13 06:30:55;;;;;;;3.92;3.38;;;18.10;90.40;;;;;;4224919;28;20031;-61
2023/04/13 06:32:57;;;;;;;4.78;3.80;;;18.50;90.40;;;;;;4220081;28;20108;-58
2023/04/13 06:34:58;;;;;;;8.32;3.38;;;18.80;89.80;;;;;;4208188;28;20028;-61
2023/04/13 06:37:01;;;;;;;7.88;3.33;;;18.80;89.00;;;;;;4228377;28;20073;-61
2023/04/13 06:39:03;;;;;;;5.20;3.20;;;18.50;88.40;;;;;;4219652;28;20070;-64
2023/04/13 06:41:04;;;;;;;4.93;3.22;;;18.30;88.60;;;;;;4219928;28;20092;-60
2023/04/13 06:43:05;;;;;;;6.93;3.70;;;17.90;88.80;;;;;;4226476;28;20105;-58
2023/04/13 06:45:08;;;;;;;4.97;3.38;;;18.10;89.60;;;;;;4227023;28;20397;-60
2023/04/13 06:47:09;;;;;;;4.53;3.22;;;18.30;88.50;;;;;;4226182;28;20024;-60
2023/04/13 06:49:12;;;;;;;3.50;3.00;;;18.50;88.30;;;;;;4227293;28;20047;-59
2023/04/13 06:51:13;;;;;;;5.35;3.45;;;18.80;87.60;;;;;;4227485;28;20048;-59
2023/04/13 06:53:14;;;;;;;4.47;3.08;;;19.10;86.90;;;;;;4227630;28;20069;-61
2023/04/13 06:55:16;;;;;;;5.10;3.47;;;19.30;86.10;;;;;;4228409;28;20076;-60
2023/04/13 06:57:17;;;;;;;7.15;3.95;;;19.20;85.50;;;;;;4227349;28;20020;-60
2023/04/13 06:59:19;;;;;;;5.88;3.40;;;18.40;86.50;;;;;;4228158;28;20027;-68
2023/04/13 07:01:20;;;;;;;6.13;4.10;;;17.90;87.40;;;;;;4225607;28;20450;-69
2023/04/13 07:03:21;;;;;;;8.60;4.20;;;16.80;88.80;;;;;;4228047;28;20077;-60
2023/04/13 07:05:22;;;;;;;6.57;4.28;;;16.00;90.40;;;;;;4190601;28;20032;-61
2023/04/13 07:07:24;;;;;;;6.00;3.17;;;15.10;91.30;;;;;;4211093;28;20027;-61
2023/04/13 07:09:26;;;;;;;4.20;3.80;;;14.50;92.20;;;;;;4210402;28;20030;-61
2023/04/13 07:11:27;;;;;;;5.07;3.97;;;14.00;93.20;;;;;;4211632;28;20020;-59
2023/04/13 07:13:28;;;;;;;7.00;3.70;;;14.00;93.70;;;;;;4210243;28;20499;-60
2023/04/13 07:15:29;;;;;;;4.10;3.53;;;14.00;94.00;;;;;;4211237;28;20152;-61
2023/04/13 07:17:31;;;;;;;8.40;4.45;;;13.70;94.50;;;;;;4210378;28;20016;-60
2023/04/13 07:19:33;;;;;;;6.05;4.07;;;13.70;95.10;;;;;;4210848;28;20024;-61
2023/04/13 07:21:34;;;;;;;6.25;4.35;;;13.60;95.20;;;;;;4209886;28;20410;-61
2023/04/13 07:23:36;;;;;;;11.57;4.33;;;13.70;95.40;;;;;;4210646;28;20026;-61
2023/04/13 07:25:37;;;;;;;6.40;3.77;;;14.00;95.50;;;;;;4226869;28;20035;-62
2023/04/13 07:27:39;;;;;;;4.33;3.40;;;14.20;95.30;;;;;;4226462;28;20031;-64
2023/04/13 07:29:40;;;;;;;5.93;3.60;;;14.20;95.10;;;;;;4226728;28;20043;-70
2023/04/13 07:31:42;;;;;;;6.30;4.30;;;14.00;95.30;;;;;;4226037;28;20035;-62
2023/04/13 07:33:43;;;;;;;9.37;3.73;;;14.20;95.50;;;;;;4226670;28;20055;-71
2023/04/13 07:35:45;;;;;;;8.10;4.13;;;14.30;95.50;;;;;;4226639;28;20035;-61
2023/04/13 07:37:48;;;;;;;6.20;4.53;;;14.50;95.50;;;;;;4227818;28;20031;-60
2023/04/13 07:39:49;;;;;;;7.00;4.50;;;14.30;95.70;;;;;;4226072;28;20051;-61
2023/04/13 07:41:50;;;;;;;6.50;4.63;;;14.20;95.90;;;;;;4228052;28;20426;-64
2023/04/13 07:43:51;;;;;;;6.37;4.63;;;13.70;96.60;;;;;;4225994;28;20092;-64
2023/04/13 07:45:53;;;;;;;7.53;5.00;;;13.40;97.40;;;;;;4226995;28;20085;-61
2023/04/13 07:47:54;;;;;;;8.77;4.73;;;13.30;97.80;;;;;;4226932;28;20073;-67
2023/04/13 07:49:55;;;;;;;12.07;4.70;;;13.20;98.50;;;;;;4227114;28;20433;-61
2023/04/13 07:51:57;;;;;;;6.73;4.67;;;13.00;99.00;;;;;;4227724;28;20076;-60
2023/04/13 07:53:59;;;;;;;6.87;4.77;;;12.80;99.50;;;;;;4226609;28;20101;-62
2023/04/13 07:56:01;;;;;;;8.27;4.50;;;12.60;99.90;;;;;;4227834;28;20032;-61
2023/04/13 07:58:02;;;;;;;5.47;4.60;;;12.80;99.90;;;;;;4226329;28;20093;-61
2023/04/13 08:00:05;;;;;;;8.20;4.87;;;12.90;99.90;;;;;;4227308;28;20024;-59
2023/04/13 08:02:06;;;;;;;8.70;4.53;;;13.00;99.70;;;;;;4225581;28;20089;-61
2023/04/13 08:04:07;;;;;;;7.33;5.20;;;13.10;99.50;;;;;;4226801;28;20031;-61
2023/04/13 08:06:09;;;;;;;11.50;4.27;;;13.20;99.20;;;;;;4225949;28;20084;-58
2023/04/13 08:08:10;;;;;;;13.20;4.73;;;13.30;98.90;;;;;;4227733;28;20061;-63
2023/04/13 08:10:12;;;;;;;5.40;3.60;;;13.40;99.10;;;;;;4225603;28;20032;-61
2023/04/13 08:12:13;;;;;;;8.57;5.03;;;13.60;98.60;;;;;;4227700;28;20421;-69
2023/04/13 08:14:14;;;;;;;7.07;3.83;;;13.70;98.50;;;;;;4225407;28;20637;-62
2023/04/13 08:16:15;;;;;;;8.60;4.20;;;13.80;98.50;;;;;;4220901;28;20036;-62
2023/04/13 08:18:17;;;;;;;4.27;3.33;;;13.80;98.30;;;;;;4209870;28;20032;-61
2023/04/13 08:20:19;;;;;;;5.47;3.57;;;13.60;98.00;;;;;;4222119;28;20429;-62
2023/04/13 08:22:21;;;;;;;4.03;2.87;;;13.50;97.50;;;;;;4226557;28;20381;-61
2023/04/13 08:24:23;;;;;;;5.87;4.40;;;13.30;97.70;;;;;;4226135;28;20089;-59
2023/04/13 08:26:25;;;;;;;6.67;4.93;;;13.20;98.40;;;;;;4227225;28;20061;-61
2023/04/13 08:28:26;;;;;;;9.37;4.10;;;13.40;98.60;;;;;;4226791;28;20089;-61
2023/04/13 08:30:30;;;;;;;9.57;5.03;;;13.60;98.30;;;;;;4226139;28;20043;-67
2023/04/13 08:32:32;;;;;;;8.03;4.53;;;13.50;98.30;;;;;;4226462;28;20424;-60
2023/04/13 08:34:33;;;;;;;9.60;5.30;;;13.50;98.50;;;;;;4227382;28;20039;-66
2023/04/13 08:36:36;;;;;;;6.00;4.47;;;13.50;98.70;;;;;;4226472;28;20368;-68
2023/04/13 08:38:37;;;;;;;5.23;4.33;;;13.60;98.70;;;;;;4226852;28;20036;-63
2023/04/13 08:40:39;;;;;;;6.20;4.50;;;13.90;98.60;;;;;;4227342;28;20104;-63
2023/04/13 08:42:41;;;;;;;5.43;4.00;;;14.00;98.30;;;;;;4230294;28;20047;-61
2023/04/13 08:44:43;;;;;;;6.60;3.90;;;13.90;98.10;;;;;;4228469;28;20032;-67
2023/04/13 08:46:45;;;;;;;6.53;4.67;;;13.80;98.20;;;;;;4229785;28;20575;-62
2023/04/13 08:48:48;;;;;;;6.57;5.07;;;13.50;98.60;;;;;;4229078;28;20047;-62
2023/04/13 08:50:52;;;;;;;8.93;4.73;;;13.40;99.10;;;;;;4230000;28;20031;-61
2023/04/13 08:52:54;;;;;;;9.40;5.03;;;13.40;99.40;;;;;;4228677;28;20516;-72
2023/04/13 08:54:57;;;;;;;7.87;4.77;;;13.50;99.30;;;;;;4230031;28;20076;-61
2023/04/13 08:56:58;;;;;;;7.10;4.57;;;13.50;99.40;;;;;;4228423;28;20055;-68
2023/04/13 08:59:05;;;;;;;7.67;4.47;;;13.60;99.80;;;;;;4225675;28;20032;-64
2023/04/13 09:01:07;;;;;;;6.60;5.13;;;13.40;99.50;;;;;;4226805;28;20080;-65
2023/04/13 09:03:12;;;;;;;5.93;4.13;;;13.60;99.60;;;;;;4228262;28;20496;-60
2023/04/13 09:05:15;;;;;;;8.10;5.07;;;13.60;99.40;;;;;;4227524;28;20096;-61
2023/04/13 09:07:26;;;;;;;8.80;4.80;;;13.60;99.50;;;;;;4228484;28;20081;-65
2023/04/13 09:09:28;;;;;;;8.20;3.93;;;13.60;99.50;;;;;;4212784;28;20040;-61
2023/04/13 09:11:30;;;;;;;6.23;4.00;;;13.80;99.40;;;;;;4212034;28;20024;-65
2023/04/13 09:13:31;;;;;;;7.63;5.10;;;13.90;99.30;;;;;;4212854;28;20048;-62
2023/04/13 09:15:33;;;;;;;6.40;4.93;;;13.70;99.20;;;;;;4211705;28;20043;-63
2023/04/13 09:17:34;;;;;;;5.90;4.43;;;13.80;99.50;;;;;;4212658;28;20805;-61
2023/04/13 09:19:36;;;;;;;6.63;4.30;;;13.90;99.30;;;;;;4212069;28;20463;-62
2023/04/13 09:21:42;;;;;;;6.33;4.03;;;14.00;99.20;;;;;;4212587;28;20048;-64
2023/04/13 09:23:53;;;;;;;6.70;3.80;;;14.00;98.90;;;;;;4222966;28;20080;-66
2023/04/13 09:26:07;;;;;;;6.53;4.10;;;13.80;98.50;;;;;;4228638;28;20096;-62
2023/04/13 09:28:16;;;;;;;6.57;4.27;;;13.80;99.10;;;;;;4228796;28;20063;-61
2023/04/13 09:30:21;;;;;;;6.20;3.80;;;13.70;99.40;;;;;;4220392;28;20028;-62
2023/04/13 09:32:24;;;;;;;6.57;3.93;;;13.70;99.30;;;;;;4212039;28;20077;-61
2023/04/13 09:34:27;;;;;;;5.97;4.23;;;13.60;99.40;;;;;;4211993;28;20094;-62
2023/04/13 09:36:29;;;;;;;4.67;3.77;;;13.70;99.50;;;;;;4211485;28;20568;-65
2023/04/13 09:38:31;;;;;;;7.60;4.50;;;13.90;99.30;;;;;;4212671;28;20070;-61
2023/04/13 09:40:36;;;;;;;5.83;4.00;;;14.00;99.00;;;;;;4212137;28;20485;-64
2023/04/13 09:42:40;;;;;;;6.37;4.60;;;14.10;98.90;;;;;;4229147;28;20136;-67
2023/04/13 09:44:41;;;;;;;6.50;4.10;;;14.00;99.00;;;;;;4225922;28;20032;-67
2023/04/13 09:47:02;;;;;;;4.33;3.33;;;13.90;99.00;;;;;;4211931;28;20028;-61
2023/04/13 09:49:03;;;;;;;5.03;3.80;;;14.00;99.20;;;;;;4226002;28;20425;-62
2023/04/13 09:51:07;;;;;;;5.67;4.37;;;14.20;98.70;;;;;;4227963;28;20438;-62
2023/04/13 09:53:09;;;;;;;3.90;3.37;;;14.30;98.70;;;;;;4228760;28;20088;-61
2023/04/13 09:55:18;;;;;;;6.43;3.50;;;14.10;98.50;;;;;;4227581;28;20493;-70
2023/04/13 09:57:24;;;;;;;5.80;3.30;;;14.10;98.70;;;;;;4227923;28;20057;-64
2023/04/13 09:59:26;;;;;;;5.37;3.43;;;14.30;98.40;;;;;;4222631;28;20040;-62
2023/04/13 10:01:27;;;;;;;4.57;3.40;;;14.30;98.20;;;;;;4227266;28;20054;-63
2023/04/13 10:03:32;;;;;;;8.23;3.43;;;14.30;98.20;;;;;;4227629;28;20032;-68
2023/04/13 10:05:34;;;;;;;7.40;3.70;;;14.30;98.10;;;;;;4227966;28;20085;-61
2023/04/13 10:07:36;;;;;;;3.80;3.40;;;14.30;98.10;;;;;;4228105;28;20092;-61
2023/04/13 10:09:37;;;;;;;5.77;3.60;;;14.20;98.20;;;;;;4228567;28;20031;-61
2023/04/13 10:11:44;;;;;;;6.83;3.90;;;14.20;98.40;;;;;;4226087;28;20147;-66
2023/04/13 10:13:58;;;;;;;4.57;3.60;;;14.10;98.50;;;;;;4229141;28;20040;-63
2023/04/13 10:16:44;;;;;;;7.30;3.53;;;14.20;98.60;;;;;;4228041;28;20108;-67
2023/04/13 10:18:59;;;;;;;5.57;3.20;;;14.20;98.10;;;;;;4227974;28;20031;-64
2023/04/13 10:21:01;;;;;;;5.20;3.60;;;14.10;98.30;;;;;;4211018;28;20032;-66
2023/04/13 10:23:03;;;;;;;4.23;3.03;;;14.30;98.20;;;;;;4216658;28;20085;-70
2023/04/13 10:25:06;;;;;;;5.87;3.30;;;14.50;98.00;;;;;;4227292;28;20020;-62
2023/04/13 10:27:15;;;;;;;5.13;3.30;;;14.70;98.00;;;;;;4228763;28;20076;-61
2023/04/13 10:29:29;;;;;;;3.87;3.10;;;15.00;97.10;;;;;;4226924;28;20039;-62
2023/04/13 10:31:38;;;;;;;3.43;3.13;;;15.00;96.30;;;;;;4214762;28;20464;-65
2023/04/13 10:33:49;;;;;;;4.88;3.30;;;15.10;96.20;;;;;;4226773;28;20483;-61
2023/04/13 10:35:58;;;;;;;3.70;3.07;;;15.00;95.40;;;;;;4223584;28;20040;-61
2023/04/13 10:37:59;;;;;;;3.63;2.92;;;15.00;95.60;;;;;;4227142;28;20617;-61
2023/04/13 10:40:05;;;;;;;5.90;3.20;;;15.00;95.70;;;;;;4228329;28;20103;-62
2023/04/13 10:42:08;;;;;;;3.85;3.20;;;15.10;95.60;;;;;;4227191;28;20097;-68